Terminal Aerodrome Forecast
Issued by NWS

Home | Current Version | Previous Version | Graphics & Text | Print | Product List | Glossary On
Versions: 1 2 3 4 5 6 7 8 9 10 11 12 13
000
FTUS45 KGGW 281100
TAFSDY
TAF
KSDY 281134Z 2812/2912 29015KT P6SM SCT015 OVC070
     FM281300 30012KT P6SM BKN025
     FM281900 30009KT P6SM SCT200
     FM290000 VRB03KT P6SM SCT150
      AMD LTD TO CLD VIS AND WIND=

USA.gov is the U.S. government's official web portal to all federal, state and local government web resources and services.